Waldo, Ohio
Current Conditions -  °F | °C
As of 10:53 AM on Friday 28 Nov 2014 (Local Time) from KMNN Reporting Station
Overcast Overcast  
Wind Chill: 17°   Ceiling: 10000
Heat Index: 25°   Visibility: 8mi
Dew Point: 17°   Wind: 7mph
Humidity: 72%   Direction: 230°SW
Pressure: 30.33"   Gusts: NA
Location:  40.46°N, 83.08°W
Report Text: KMNN 281553Z AUTO 23006KT 8SM FEW018 OVC100 M04/M08 A3033 RMK AO2 SNE12 SLP287 P0000 T10391083 TSNO
Loading
Personal Weather Stations






























Interactive Weather Map New forecast layout! Learn more

10-Day Weather Forecast

Advertisements
Track Severe Weather on mobile